Terminal Aerodrome Forecast
Issued by NWS

Current Version | Previous Version | Text Only | Print | Product List | Glossary On
Versions: 1 2 3 4 5 6 7 8 9 10 11
000
FTUS45 KVEF 251100
TAFHND
TAF
KHND 251120Z 2512/2612 07008KT P6SM BKN070
     FM251400 32018G28KT P6SM BKN070
     FM251600 31010G20KT P6SM SCT070
     FM260200 32008KT P6SM FEW070=

USA.gov is the U.S. government's official web portal to all federal, state and local government web resources and services.